Aérodrome :
LOGIN :

S'inscrire | Disclaimer

   EN    FR    IT 

 










Légende :    VFR   VFR Marginal   IFR   IFR Intensif   IFR Très Intensif
Visi : 
Plafond : 
>= 8 km
>= 3000ft
5 à 8 km
1000 à 3000 ft
1500m à 5 km
500 à 1000 ft
800 à 1500m
200 à 500 ft
< 800m
< 200 ft
Symboles :   Orages  Brouillard  Fortes neiges  Fortes précipitations  Vent > 20 kt
SIGMETs :   Divers  Orages  Givrage  Turbulence  Onde Orograph.  Cendres Volcan.







- Altitude de l'aérodrome : 330 ft
- Code IATA : LVA
- Voir les cartes d'approche


LFOV - Laval-Entrammes

DERNIER METAR :
  • 200330Z AUTO 21005KT CAVOK 17/16 Q1011

METARs EXPIRÉS :
  • 200300Z AUTO 21006KT CAVOK 17/16 Q1011
  • 200230Z AUTO 19004KT CAVOK 17/15 Q1011
  • 200200Z AUTO VRB03KT CAVOK 17/15 Q1011
  • 200130Z AUTO VRB02KT CAVOK 17/15 Q1011
  • 200100Z AUTO VRB03KT CAVOK 17/15 Q1012

TAF N/A
Pas de NOTAMs connus pour ce terrain.
1 SIGMET publié pour la FIR Brest (LFRR) :
 
Orages noyés dans la masse
LFRR SIGMET 1 VALID 200100/200400 LFPW
LFRR BREST FIR/UIR EMBD TS OBS AT 0100Z WI N4600 W00145 - N4515 W00145 - N4500 W00230 - N4530 W00230 - N4600 W00145 TOP FL390 MOV E 20KT NC=



MET'MAP, la Météo Aéronautique d'un coup d'oeil ! - Copyright ORBIFLY Décembre 2007 - Disclaimer

ORBIFLY MET'MAP TEAM :

Programmation & Développement : Alexandra Zaïnal
Conception & Développement : Baudouin d'Aumeries
Co-Programmation & Développement : Marc-Olivier Méhu
Soutien technique & logistique : Manuel Goepfert

Contact : metmap@orbifly.com




SOURCES & CREDITS :

   NOAA